Rauris, Austria
Current Conditions -  °F | °C
As of 2:50 AM on Thursday 23 Oct 2014 (Local Time) from LOWS Reporting Station
Moderate Rain Moderate Rain  
Wind Chill: 33°   Ceiling: 2400
Heat Index: 41°   Visibility: 6mi
Dew Point: 37°   Wind: 14mph
Humidity: 87%   Direction: 260°W
Pressure: 29.88"   Gusts: NA
Location:  47.23°N, 12.99°E
Report Text: LOWS 230050Z AUTO 26012KT 230V300 9999 RA FEW022 BKN024 05/03 Q1012
Loading
Personal Weather Stations






























Interactive Weather Map
Tropical Storm Tracking
New forecast layout! Learn more

10-Day Weather Forecast

Advertisements
Track Severe Weather on mobile